Flight Track Log - Related Links

Times and Time Zones

All times are in EDT time to prevent confusion due to time zone crossing. See the EGF4247 flight status page for this flight to view local times or setup timezone preferences in your user account.


Time Position Orientation Groundspeed Altitude Reporting Facility
EDT Latitude Longitude Course Direction KTS MPH feet Rate Location/Type
Fri 03:46:34 PM 42.9167 -78.7500 270° West 156 180 1,500  Level Buffalo TRACON
Fri 03:47:52 PM 42.8833 -78.8167 236° Southwest 210 242 4,000 1,917 Climbing Buffalo TRACON
Fri 03:48:58 PM 42.9000 -78.9167 283° West 248 285 6,100 2,095 Climbing Buffalo TRACON
Fri 03:49:00 PM 42.9506 -79.0733 277° West  Level FlightAware Approximate
Fri 03:49:58 PM 42.9000 -79.0167 270° West 262 302 8,400  Level Buffalo TRACON
Fri 03:50:00 PM 42.9605 -79.1923 277° West  Level FlightAware Approximate
Fri 03:50:58 PM 42.9167 -79.1167 283° West 267 307 10,200  Level Buffalo TRACON
Fri 03:51:00 PM 42.9667 -79.3115 270° West  Level FlightAware Approximate
Fri 03:51:58 PM 42.9167 -79.2167 270° West 287 330 11,900  Level Buffalo TRACON
Fri 03:52:52 PM 42.9333 -79.3167 283° West 299 344 13,300 1,437 Climbing Buffalo TRACON
Fri 03:53:09 PM 42.9167 -79.3333 216° Southwest 300 345 13,600 545 Climbing Toronto Center
Fri 03:54:09 PM 42.9333 -79.4500 281° West 310 357 14,000 550 Climbing Toronto Center
Fri 03:55:09 PM 42.9333 -79.5833 270° West 350 403 14,700 900 Climbing Toronto Center
Fri 03:56:09 PM 42.9500 -79.7167 280° West 360 414 15,800 1,250 Climbing Toronto Center
Fri 03:57:09 PM 42.9500 -79.8333 270° West 350 403 17,200 1,200 Climbing Toronto Center
Fri 03:58:09 PM 42.9667 -79.9667 280° West 340 391 18,200 1,200 Climbing Toronto Center
Fri 03:59:09 PM 42.9667 -80.1167 270° West 340 391 19,600 1,450 Climbing Toronto Center
Fri 04:00:09 PM 42.9833 -80.2333 281° West 340 391 21,100 1,500 Climbing Toronto Center
Fri 04:01:09 PM 42.9833 -80.3667 270° West 340 391 22,600 1,500 Climbing Toronto Center
Fri 04:02:09 PM 43.0000 -80.5000 280° West 330 380 24,100 1,450 Climbing Toronto Center
Fri 04:03:09 PM 43.0000 -80.6167 270° West 330 380 25,500 950 Climbing Toronto Center
Fri 04:04:09 PM 43.0167 -80.7500 280° West 330 380 26,000 250 Climbing Toronto Center
Fri 04:05:09 PM 43.0000 -80.8667 259° West 350 403 26,000 100 Level Toronto Center
Fri 04:06:09 PM 43.0167 -81.0167 279° West 380 437 26,200 800 Climbing Toronto Center
Fri 04:07:09 PM 43.0167 -81.1667 270° West 370 426 27,600 900 Climbing Toronto Center
Fri 04:08:09 PM 43.0167 -81.3000 270° West 360 414 28,000 200 Climbing Toronto Center
Fri 04:09:09 PM 43.0167 -81.4333 270° West 370 426 28,000  Level Toronto Center
Fri 04:10:09 PM 43.0167 -81.5667 270° West 380 437 28,000  Level Toronto Center
Fri 04:11:09 PM 43.0167 -81.7333 270° West 390 449 28,000  Level Toronto Center
Fri 04:12:09 PM 43.0167 -81.8667 270° West 390 449 28,000  Level Toronto Center
Fri 04:13:09 PM 43.0000 -82.0333 262° West 390 449 28,000  Level Toronto Center
Fri 04:14:09 PM 43.0000 -82.1667 270° West 390 449 28,000  Level Toronto Center
Fri 04:15:09 PM 43.0000 -82.3167 270° West 390 449 28,000  Level Toronto Center
Fri 04:16:09 PM 43.0000 -82.4833 270° West 390 449 28,000  Level Toronto Center
Fri 04:17:09 PM 43.0000 -82.6167 270° West 400 460 28,000  Level Toronto Center
Fri 04:18:09 PM 42.9833 -82.7833 262° West 390 449 28,000  Level Toronto Center
Fri 04:19:09 PM 42.9833 -82.9167 270° West 380 437 28,000 100 Level Toronto Center
Fri 04:20:09 PM 42.9833 -83.0500 270° West 370 426 28,200 550 Climbing Toronto Center
Fri 04:21:09 PM 42.9833 -83.1833 270° West 360 414 29,100 900 Climbing Toronto Center
Fri 04:22:09 PM 42.9667 -83.3167 260° West 350 403 30,000 450 Climbing Toronto Center
Fri 04:23:09 PM 42.9667 -83.4667 270° West 350 403 30,000  Level Toronto Center
Fri 04:24:09 PM 42.9667 -83.6000 270° West 360 414 30,000  Level Toronto Center
Fri 04:25:09 PM 42.9500 -83.7333 260° West 380 437 30,000  Level Toronto Center
Fri 04:26:09 PM 42.9333 -83.8667 260° West 380 437 30,000  Level Toronto Center
Fri 04:27:09 PM 42.9333 -84.0333 270° West 360 414 30,000  Level Toronto Center
Fri 04:28:09 PM 42.9167 -84.1333 257° West 360 414 30,000  Level Toronto Center
Fri 04:28:28 PM 42.9250 -84.1769 285° West 360 414 30,000  Level Chicago Center
Fri 04:29:30 PM 42.9111 -84.3131 262° West 363 418 30,000  Level Chicago Center
Fri 04:30:32 PM 42.8942 -84.4828 262° West 376 433 30,000  Level Chicago Center
Fri 04:31:34 PM 42.8797 -84.6264 262° West 382 440 30,000  Level Chicago Center
Fri 04:32:36 PM 42.8644 -84.7728 262° West 389 448 30,000  Level Chicago Center
Fri 04:33:38 PM 42.8497 -84.9172 262° West 388 447 30,000  Level Chicago Center
Fri 04:34:40 PM 42.8339 -85.0639 262° West 390 449 30,000  Level Chicago Center
Fri 04:35:42 PM 42.8183 -85.2097 262° West 389 448 30,000  Level Chicago Center
Fri 04:36:44 PM 42.7994 -85.3842 262° West 388 447 30,000 -726 Level Chicago Center
Fri 04:37:46 PM 42.7828 -85.5294 261° West 387 445 28,500 -1,694 Descending Chicago Center
Fri 04:38:48 PM 42.7547 -85.6692 255° West 382 440 26,500 -1,984 Descending Chicago Center
Fri 04:39:50 PM 42.7303 -85.8119 257° West 385 443 24,400 -1,968 Descending Chicago Center
Fri 04:40:53 PM 42.7042 -85.9547 256° West 386 444 22,400 -1,920 Descending Chicago Center
Fri 04:41:55 PM 42.6775 -86.0986 256° West 389 448 20,400 -1,161 Descending Chicago Center
Fri 04:42:57 PM 42.6517 -86.2400 256° West 386 444 20,000 -629 Descending Chicago Center
Fri 04:43:59 PM 42.6214 -86.4006 256° West 367 422 19,100 -1,161 Descending Chicago Center
Fri 04:45:01 PM 42.5958 -86.5353 256° West 366 421 17,600 -1,790 Descending Chicago Center
Fri 04:46:03 PM 42.5703 -86.6703 256° West 369 425 15,400 -1,839 Descending Chicago Center
Fri 04:47:05 PM 42.5428 -86.8006 254° West 363 418 13,800 -1,694 Descending Chicago Center
Fri 04:48:07 PM 42.5103 -86.9158 249° West 334 384 11,900 -1,742 Descending Chicago Center
Fri 04:49:09 PM 42.4797 -87.0236 249° West 311 358 10,200 -1,113 Descending Chicago Center
Fri 04:50:11 PM 42.4514 -87.1236 249° West 235 270 9,600 -581 Descending Chicago Center
Fri 04:51:13 PM 42.4314 -87.1981 250° West 215 247 9,000 -290 Descending Chicago Center
Fri 04:52:15 PM 42.4181 -87.2747 257° West 212 244 9,000 -48 Level Chicago Center
Fri 04:53:17 PM 42.4086 -87.3558 261° West 215 247 8,900 -816 Descending Chicago Center
Fri 04:54:20 PM 42.3867 -87.4286 248° West 205 236 7,300 -912 Descending Chicago Center
Fri 04:55:22 PM 42.3561 -87.4931 237° Southwest 205 236 7,000 -145 Descending Chicago Center
Fri 04:56:24 PM 42.3156 -87.5417 222° Southwest 196 226 7,000  Level Chicago Center
Fri 04:57:26 PM 42.2769 -87.5856 220° Southwest 152 175 7,000  Level Chicago Center
Fri 04:58:28 PM 42.2456 -87.6211 220° Southwest 150 173 7,000 -97 Level Chicago Center
Fri 04:59:30 PM 42.2144 -87.6564 220° Southwest 150 173 6,800 -768 Descending Chicago Center
Fri 05:00:33 PM 42.1831 -87.6914 220° Southwest 147 169 5,400 -1,333 Descending Chicago Center

Login

Don't have an account? Register now (free) for customized features, flight alerts, and more!